createdAt,value
2022-09-11T00:01:00.036Z,32.10
2022-09-11T00:06:03.837Z,35.25
2022-09-11T00:08:31.945Z,29.98
2022-09-11T00:11:13.651Z,32.05
2022-09-11T00:13:40.366Z,35.85
2022-09-11T00:16:17.915Z,35.85
2022-09-11T00:18:44.617Z,37.95
2022-09-11T00:21:11.149Z,39.40
2022-09-11T00:23:37.722Z,40.90
2022-09-11T00:26:04.956Z,35.97
2022-09-11T00:28:31.969Z,36.28
2022-09-11T00:30:59.615Z,38.50
2022-09-11T00:33:27.468Z,40.65
2022-09-11T00:35:57.015Z,48.92
2022-09-11T00:38:24.373Z,37.55
2022-09-11T00:40:51.842Z,31.17
2022-09-11T00:43:18.560Z,30.42
2022-09-11T00:45:50.079Z,35.58
2022-09-11T00:48:21.905Z,37.38
2022-09-11T00:50:50.304Z,29.98
2022-09-11T00:53:19.172Z,38.20
2022-09-11T00:55:51.488Z,36.45
2022-09-11T00:58:23.733Z,35.08
2022-09-11T01:03:19.448Z,41.42
2022-09-11T01:05:48.222Z,36.63
2022-09-11T01:08:15.107Z,37.00
2022-09-11T01:10:47.619Z,34.03
2022-09-11T01:13:24.243Z,37.20
2022-09-11T01:16:10.822Z,34.90
2022-09-11T01:18:41.149Z,33.33
2022-09-11T01:21:17.005Z,41.58
2022-09-11T01:24:21.413Z,38.42
2022-09-11T01:27:02.835Z,34.85
2022-09-11T01:29:39.274Z,39.53
2022-09-11T01:32:31.155Z,38.58
2022-09-11T01:35:04.373Z,35.55
2022-09-11T01:37:40.593Z,34.85
2022-09-11T01:40:18.829Z,45.92
2022-09-11T01:42:49.685Z,43.55
2022-09-11T01:45:17.078Z,38.83
2022-09-11T01:47:46.416Z,42.75
2022-09-11T01:50:16.974Z,44.80
2022-09-11T01:52:50.573Z,53.42
2022-09-11T01:55:25.000Z,50.15
2022-09-11T01:57:56.440Z,55.05
2022-09-11T02:00:24.016Z,60.30
2022-09-11T02:02:59.477Z,52.72
2022-09-11T02:05:33.541Z,47.35
2022-09-11T02:08:11.859Z,42.45
2022-09-11T02:10:45.332Z,36.05
2022-09-11T02:15:49.519Z,39.33
2022-09-11T02:18:28.835Z,48.72
2022-09-11T02:23:21.262Z,54.80
2022-09-11T02:25:48.540Z,52.10
2022-09-11T02:28:15.619Z,43.45
2022-09-11T02:30:43.910Z,47.80
2022-09-11T02:33:47.419Z,50.38
2022-09-11T02:36:32.268Z,62.55
2022-09-11T02:39:17.143Z,56.85
2022-09-11T02:42:18.825Z,48.10
2022-09-11T02:44:59.364Z,49.47
2022-09-11T02:48:07.428Z,53.30
2022-09-11T02:51:17.737Z,51.75
2022-09-11T02:54:03.251Z,64.85
2022-09-11T02:56:51.087Z,86.93
2022-09-11T02:59:24.403Z,85.60
2022-09-11T03:01:55.219Z,90.13
2022-09-11T03:06:38.444Z,108.07
2022-09-11T03:09:07.384Z,95.80
2022-09-11T03:13:53.536Z,89.82
2022-09-11T03:16:20.525Z,107.70
2022-09-11T03:18:47.378Z,107.97
2022-09-11T03:21:14.320Z,102.78
2022-09-11T03:23:40.968Z,97.68
2022-09-11T03:26:07.877Z,81.10
2022-09-11T03:28:34.556Z,88.50
2022-09-11T03:31:07.774Z,71.20
2022-09-11T03:33:35.106Z,76.18
2022-09-11T03:36:01.799Z,66.55
2022-09-11T03:38:28.352Z,71.03
2022-09-11T03:40:55.140Z,68.55
2022-09-11T03:43:21.952Z,61.05
2022-09-11T03:45:50.166Z,51.72
2022-09-11T03:48:16.795Z,49.50
2022-09-11T03:50:45.411Z,44.88
2022-09-11T03:53:12.904Z,46.75
2022-09-11T03:55:40.232Z,41.70
2022-09-11T03:58:07.525Z,47.75
2022-09-11T04:00:41.909Z,43.00
2022-09-11T04:03:08.785Z,40.15
2022-09-11T04:05:43.940Z,41.28
2022-09-11T04:08:13.941Z,43.65
2022-09-11T04:10:43.628Z,34.80
2022-09-11T04:13:10.936Z,44.58
2022-09-11T04:15:37.544Z,34.67
2022-09-11T04:18:08.284Z,37.00
2022-09-11T04:20:39.605Z,38.28
2022-09-11T04:25:19.009Z,40.25
2022-09-11T04:27:45.595Z,40.35
2022-09-11T04:30:15.460Z,43.13
2022-09-11T04:32:42.083Z,45.42
2022-09-11T04:35:08.963Z,45.20
2022-09-11T04:37:42.440Z,39.40
2022-09-11T04:40:09.943Z,47.20
2022-09-11T04:42:36.683Z,40.05
2022-09-11T04:45:04.606Z,49.33
2022-09-11T04:47:32.390Z,43.83
2022-09-11T04:49:58.946Z,40.22
2022-09-11T04:52:25.700Z,48.58
2022-09-11T04:54:52.361Z,47.78
2022-09-11T04:57:19.203Z,49.10
2022-09-11T04:59:46.087Z,54.63
2022-09-11T05:02:13.051Z,51.80
2022-09-11T05:04:42.906Z,57.47
2022-09-11T05:07:13.437Z,57.70
2022-09-11T05:09:42.440Z,59.38
2022-09-11T05:12:10.586Z,64.15
2022-09-11T05:14:37.888Z,61.05
2022-09-11T05:17:04.613Z,64.90
2022-09-11T05:19:35.441Z,64.93
2022-09-11T05:22:02.028Z,69.47
2022-09-11T05:24:29.907Z,62.70
2022-09-11T05:26:58.867Z,57.83
2022-09-11T05:29:32.191Z,62.13
2022-09-11T05:32:08.060Z,63.17
2022-09-11T05:34:34.923Z,74.63
2022-09-11T05:37:02.228Z,67.50
2022-09-11T05:39:32.031Z,72.32
2022-09-11T05:42:00.945Z,67.22
2022-09-11T05:44:31.680Z,75.40
2022-09-11T05:46:58.725Z,75.20
2022-09-11T05:49:25.700Z,68.88
2022-09-11T05:51:52.359Z,68.20
2022-09-11T05:54:19.044Z,67.50
2022-09-11T05:56:45.908Z,62.22
2022-09-11T05:59:20.526Z,64.85
2022-09-11T06:01:49.742Z,62.80
2022-09-11T06:04:24.957Z,64.07
2022-09-11T06:06:52.617Z,62.53
2022-09-11T06:11:31.460Z,57.88
2022-09-11T06:16:18.305Z,53.55
2022-09-11T06:18:50.475Z,49.75
2022-09-11T06:21:22.576Z,51.97
2022-09-11T06:24:18.596Z,46.55
2022-09-11T06:26:46.608Z,42.55
2022-09-11T06:29:16.902Z,50.38
2022-09-11T06:31:49.157Z,54.58
2022-09-11T06:34:18.213Z,43.97
2022-09-11T06:36:47.616Z,45.70
2022-09-11T06:39:20.514Z,49.83
2022-09-11T06:41:47.309Z,46.83
2022-09-11T06:44:15.949Z,47.97
2022-09-11T06:46:42.919Z,48.25
2022-09-11T06:49:11.757Z,44.85
2022-09-11T06:51:59.355Z,50.95
2022-09-11T06:54:26.171Z,42.60
2022-09-11T06:56:54.059Z,43.08
2022-09-11T06:59:23.790Z,47.45
2022-09-11T07:01:51.663Z,52.95
2022-09-11T07:04:18.887Z,57.58
2022-09-11T07:06:48.036Z,49.83
2022-09-11T07:09:15.855Z,45.97
2022-09-11T07:11:48.557Z,49.92
2022-09-11T07:14:21.298Z,46.55
2022-09-11T07:16:55.285Z,48.00
2022-09-11T07:19:25.603Z,42.58
2022-09-11T07:21:52.132Z,41.45
2022-09-11T07:24:20.633Z,46.10
2022-09-11T07:26:48.175Z,38.50
2022-09-11T07:29:20.748Z,38.72
2022-09-11T07:31:47.789Z,37.17
2022-09-11T07:34:15.641Z,43.88
2022-09-11T07:36:43.929Z,40.85
2022-09-11T07:39:10.639Z,40.97
2022-09-11T07:41:47.191Z,58.47
2022-09-11T07:46:33.329Z,33.40
2022-09-11T07:51:31.395Z,38.00
2022-09-11T07:54:02.452Z,38.73
2022-09-11T07:56:31.796Z,36.85
2022-09-11T07:59:01.955Z,39.08
2022-09-11T08:01:31.145Z,41.75
2022-09-11T08:04:00.888Z,40.47
2022-09-11T08:06:30.303Z,35.60
2022-09-11T08:09:02.796Z,35.95
2022-09-11T08:11:36.209Z,36.42
2022-09-11T08:14:02.872Z,34.63
2022-09-11T08:16:29.956Z,31.08
2022-09-11T08:19:00.007Z,26.08
2022-09-11T08:21:26.845Z,30.27
2022-09-11T08:23:54.241Z,28.90
2022-09-11T08:26:23.541Z,29.77
2022-09-11T08:31:23.039Z,25.85
2022-09-11T08:33:49.971Z,27.23
2022-09-11T08:36:16.763Z,28.48
2022-09-11T08:38:47.128Z,27.30
2022-09-11T08:41:16.471Z,24.67
2022-09-11T08:43:51.277Z,25.80
2022-09-11T08:46:23.105Z,24.95
2022-09-11T08:49:08.149Z,26.92
2022-09-11T08:51:36.301Z,25.98
2022-09-11T08:54:07.265Z,24.40
2022-09-11T08:56:38.708Z,25.58
2022-09-11T08:59:38.888Z,29.58
2022-09-11T09:02:27.919Z,29.60
2022-09-11T09:05:05.351Z,24.48
2022-09-11T09:08:01.567Z,25.90
2022-09-11T09:10:43.777Z,22.30
2022-09-11T09:13:25.618Z,22.88
2022-09-11T09:16:04.635Z,25.35
2022-09-11T09:18:36.395Z,18.90
2022-09-11T09:21:10.194Z,26.27
2022-09-11T09:24:01.327Z,19.20
2022-09-11T09:26:40.404Z,18.58
2022-09-11T09:29:17.809Z,19.38
2022-09-11T09:31:47.741Z,24.42
2022-09-11T09:34:18.594Z,16.40
2022-09-11T09:36:56.084Z,17.60
2022-09-11T09:39:24.331Z,20.73
2022-09-11T09:42:18.348Z,17.33
2022-09-11T09:45:02.359Z,19.13
2022-09-11T09:47:29.688Z,17.38
2022-09-11T09:49:58.342Z,14.68
2022-09-11T09:52:35.940Z,16.00
2022-09-11T09:55:05.767Z,14.02
2022-09-11T09:57:36.445Z,14.70
2022-09-11T10:00:06.932Z,15.35
2022-09-11T10:02:57.964Z,14.90
2022-09-11T10:05:24.638Z,14.80
2022-09-11T10:08:03.764Z,13.98
2022-09-11T10:10:34.726Z,18.88
2022-09-11T10:13:19.146Z,13.02
2022-09-11T10:15:49.657Z,14.00
2022-09-11T10:18:29.469Z,15.38
2022-09-11T10:21:11.564Z,12.38
2022-09-11T10:26:34.282Z,11.38
2022-09-11T10:29:07.947Z,11.88
2022-09-11T10:31:39.242Z,13.23
2022-09-11T10:34:07.336Z,11.20
2022-09-11T10:36:35.112Z,14.10
2022-09-11T10:39:02.528Z,12.27
2022-09-11T10:41:34.279Z,12.60
2022-09-11T10:44:02.420Z,11.23
2022-09-11T10:46:38.513Z,11.52
2022-09-11T10:49:05.325Z,11.15
2022-09-11T10:51:47.318Z,9.10
2022-09-11T10:54:39.775Z,12.00
2022-09-11T10:57:34.860Z,12.60
2022-09-11T11:00:09.545Z,10.85
2022-09-11T11:02:41.620Z,12.10
2022-09-11T11:05:19.880Z,11.88
2022-09-11T11:07:50.205Z,14.02
2022-09-11T11:10:19.741Z,15.77
2022-09-11T11:13:29.957Z,14.07
2022-09-11T11:16:06.800Z,14.05
2022-09-11T11:19:04.396Z,12.40
2022-09-11T11:21:46.156Z,12.30
2022-09-11T11:24:32.354Z,11.93
2022-09-11T11:27:20.313Z,13.02
2022-09-11T11:30:13.057Z,12.27
2022-09-11T11:32:48.820Z,11.75
2022-09-11T11:35:30.223Z,12.75
2022-09-11T11:38:13.059Z,13.50
2022-09-11T11:40:49.620Z,12.05
2022-09-11T11:43:21.160Z,10.23
2022-09-11T11:46:12.388Z,10.50
2022-09-11T11:49:01.739Z,10.27
2022-09-11T11:51:35.426Z,12.07
2022-09-11T11:54:10.976Z,10.65
2022-09-11T11:56:48.014Z,8.60
2022-09-11T11:59:17.244Z,9.32
2022-09-11T12:02:02.261Z,11.27
2022-09-11T12:04:53.781Z,11.25
2022-09-11T12:07:33.169Z,14.00
2022-09-11T12:10:05.648Z,19.10
2022-09-11T12:12:36.681Z,17.05
2022-09-11T12:15:09.756Z,19.67
2022-09-11T12:17:39.803Z,17.58
2022-09-11T12:20:09.260Z,16.40
2022-09-11T12:22:48.638Z,12.05
2022-09-11T12:25:20.981Z,12.82
2022-09-11T12:27:48.778Z,9.40
2022-09-11T12:30:18.308Z,10.20
2022-09-11T12:32:57.021Z,9.05
2022-09-11T12:35:26.661Z,7.53
2022-09-11T12:38:13.421Z,10.23
2022-09-11T12:40:56.460Z,10.10
2022-09-11T12:43:35.508Z,7.45
2022-09-11T12:46:05.142Z,11.98
2022-09-11T12:48:38.795Z,9.15
2022-09-11T12:51:17.753Z,9.70
2022-09-11T12:53:50.435Z,8.75
2022-09-11T12:56:21.696Z,7.97
2022-09-11T12:59:07.568Z,7.22
2022-09-11T13:01:41.195Z,9.25
2022-09-11T13:04:10.591Z,14.52
2022-09-11T13:06:48.585Z,8.60
2022-09-11T13:09:28.657Z,8.00
2022-09-11T13:11:57.316Z,8.48
2022-09-11T13:14:32.136Z,8.18
2022-09-11T13:17:04.881Z,11.60
2022-09-11T13:19:36.296Z,8.02
2022-09-11T13:22:31.028Z,13.55
2022-09-11T13:25:18.716Z,9.00
2022-09-11T13:27:57.283Z,10.73
2022-09-11T13:30:26.664Z,15.27
2022-09-11T13:33:17.746Z,17.05
2022-09-11T13:35:45.809Z,13.48
2022-09-11T13:38:20.188Z,11.18
2022-09-11T13:40:55.741Z,10.80
2022-09-11T13:43:29.723Z,15.55
2022-09-11T13:46:14.884Z,12.52
2022-09-11T13:48:47.386Z,14.65
2022-09-11T13:51:16.504Z,12.52
2022-09-11T13:53:45.781Z,14.45
2022-09-11T13:56:51.405Z,13.25
2022-09-11T13:59:27.125Z,12.15
2022-09-11T14:01:56.908Z,9.18
2022-09-11T14:04:23.479Z,9.40
2022-09-11T14:06:50.213Z,10.07
2022-09-11T14:09:21.716Z,12.68
2022-09-11T14:11:49.517Z,8.30
2022-09-11T14:16:36.568Z,7.05
2022-09-11T14:19:16.924Z,7.10
2022-09-11T14:21:46.891Z,7.93
2022-09-11T14:24:33.716Z,5.82
2022-09-11T14:27:02.281Z,5.30
2022-09-11T14:29:33.234Z,7.90
2022-09-11T14:32:39.044Z,6.67
2022-09-11T14:35:09.149Z,11.02
2022-09-11T14:37:41.588Z,7.80
2022-09-11T14:40:16.051Z,7.82
2022-09-11T14:42:43.666Z,8.18
2022-09-11T14:45:24.608Z,6.25
2022-09-11T14:47:52.623Z,7.68
2022-09-11T14:50:19.512Z,9.50
2022-09-11T14:52:46.753Z,9.05
2022-09-11T14:55:14.617Z,11.98
2022-09-11T14:57:42.337Z,11.15
2022-09-11T15:00:10.815Z,12.85
2022-09-11T15:02:39.212Z,10.27
2022-09-11T15:05:07.705Z,12.15
2022-09-11T15:07:36.360Z,9.95
2022-09-11T15:10:02.917Z,10.82
2022-09-11T15:12:30.185Z,12.32
2022-09-11T15:14:59.342Z,19.02
2022-09-11T15:17:30.518Z,12.20
2022-09-11T15:19:59.919Z,12.85
2022-09-11T15:22:26.663Z,12.25
2022-09-11T15:24:54.006Z,12.27
2022-09-11T15:27:20.513Z,12.50
2022-09-11T15:29:47.057Z,16.10
2022-09-11T15:32:14.422Z,14.07
2022-09-11T15:34:42.377Z,12.73
2022-09-11T15:37:09.504Z,15.13
2022-09-11T15:39:36.189Z,16.80
2022-09-11T15:42:03.127Z,12.48
2022-09-11T15:44:29.959Z,10.80
2022-09-11T15:46:58.907Z,12.25
2022-09-11T15:49:28.374Z,12.60
2022-09-11T15:51:55.648Z,12.88
2022-09-11T15:54:25.509Z,12.60
2022-09-11T15:56:52.859Z,13.65
2022-09-11T15:59:19.455Z,10.45
2022-09-11T16:01:46.328Z,6.00
2022-09-11T16:04:15.616Z,9.52
2022-09-11T16:06:45.540Z,11.55
2022-09-11T16:09:16.087Z,12.68
2022-09-11T16:11:43.924Z,9.57
2022-09-11T16:14:23.274Z,13.35
2022-09-11T16:16:50.973Z,17.77
2022-09-11T16:19:20.452Z,15.75
2022-09-11T16:21:49.220Z,17.48
2022-09-11T16:24:16.279Z,13.02
2022-09-11T16:26:44.439Z,9.25
2022-09-11T16:29:14.857Z,12.57
2022-09-11T16:31:42.433Z,14.15
2022-09-11T16:34:09.703Z,12.80
2022-09-11T16:36:38.877Z,12.02
2022-09-11T16:39:06.947Z,17.50
2022-09-11T16:41:33.581Z,14.40
2022-09-11T16:44:00.301Z,13.63
2022-09-11T16:46:27.475Z,15.55
2022-09-11T16:48:59.851Z,14.43
2022-09-11T16:51:28.397Z,14.07
2022-09-11T16:53:55.385Z,16.63
2022-09-11T16:56:24.612Z,13.70
2022-09-11T16:58:51.444Z,16.55
2022-09-11T17:01:32.491Z,13.30
2022-09-11T17:03:59.144Z,15.10
2022-09-11T17:06:29.869Z,10.10
2022-09-11T17:08:59.688Z,12.85
2022-09-11T17:11:26.709Z,10.98
2022-09-11T17:13:53.709Z,12.57
2022-09-11T17:16:24.071Z,13.80
2022-09-11T17:18:53.925Z,15.02
2022-09-11T17:21:24.992Z,14.10
2022-09-11T17:23:54.317Z,14.53
2022-09-11T17:26:22.249Z,15.68
2022-09-11T17:28:50.292Z,14.82
2022-09-11T17:31:19.423Z,14.75
2022-09-11T17:33:50.330Z,16.45
2022-09-11T17:38:38.128Z,13.98
2022-09-11T17:41:07.318Z,10.55
2022-09-11T17:43:36.104Z,12.40
2022-09-11T17:46:08.789Z,13.32
2022-09-11T17:48:36.174Z,15.57
2022-09-11T17:51:10.723Z,13.35
2022-09-11T17:53:39.891Z,15.70
2022-09-11T17:56:08.461Z,7.18
2022-09-11T17:58:36.632Z,9.52
2022-09-11T18:01:03.849Z,8.95
2022-09-11T18:03:31.849Z,15.70
2022-09-11T18:05:59.526Z,9.48
2022-09-11T18:08:27.034Z,8.20
2022-09-11T18:10:59.256Z,9.55
2022-09-11T18:13:31.873Z,8.70
2022-09-11T18:15:58.482Z,10.90
2022-09-11T18:18:25.158Z,8.55
2022-09-11T18:20:55.135Z,9.02
2022-09-11T18:23:26.144Z,8.63
2022-09-11T18:25:55.811Z,8.10
2022-09-11T18:28:22.407Z,14.23
2022-09-11T18:30:50.064Z,10.82
2022-09-11T18:33:16.818Z,8.98
2022-09-11T18:35:44.271Z,14.57
2022-09-11T18:38:10.910Z,8.27
2022-09-11T18:40:37.522Z,11.13
2022-09-11T18:43:06.288Z,10.90
2022-09-11T18:45:35.573Z,10.80
2022-09-11T18:48:03.541Z,10.32
2022-09-11T18:50:31.282Z,9.15
2022-09-11T18:52:57.794Z,10.63
2022-09-11T18:55:28.799Z,10.35
2022-09-11T18:57:56.123Z,9.63
2022-09-11T19:00:22.708Z,8.77
2022-09-11T19:02:50.184Z,9.40
2022-09-11T19:05:17.322Z,7.47
2022-09-11T19:10:08.150Z,9.50
2022-09-11T19:12:34.772Z,11.80
2022-09-11T19:15:01.337Z,12.15
2022-09-11T19:17:27.941Z,10.70
2022-09-11T19:19:54.529Z,12.15
2022-09-11T19:22:22.825Z,9.95
2022-09-11T19:24:49.708Z,9.85
2022-09-11T19:27:17.411Z,8.77
2022-09-11T19:29:45.026Z,12.57
2022-09-11T19:32:13.046Z,11.70
2022-09-11T19:34:46.426Z,12.60
2022-09-11T19:37:14.438Z,12.88
2022-09-11T19:39:41.149Z,9.45
2022-09-11T19:42:09.260Z,11.32
2022-09-11T19:44:36.301Z,12.60
2022-09-11T19:47:03.490Z,13.23
2022-09-11T19:49:30.042Z,9.50
2022-09-11T19:51:57.133Z,10.20
2022-09-11T19:54:25.654Z,12.07
2022-09-11T19:56:52.470Z,9.20
2022-09-11T19:59:19.677Z,9.88
2022-09-11T20:01:46.677Z,9.45
2022-09-11T20:04:15.591Z,15.35
2022-09-11T20:11:56.433Z,9.32
2022-09-11T20:14:23.114Z,18.15
2022-09-11T20:16:49.666Z,12.68
2022-09-11T20:19:17.379Z,12.35
2022-09-11T20:21:44.700Z,11.32
2022-09-11T20:24:11.553Z,14.23
2022-09-11T20:26:38.149Z,17.15
2022-09-11T20:29:07.891Z,14.85
2022-09-11T20:31:46.474Z,15.93
2022-09-11T20:34:15.388Z,14.98
2022-09-11T20:36:42.260Z,16.55
2022-09-11T20:39:15.000Z,14.90
2022-09-11T20:41:41.866Z,16.40
2022-09-11T20:44:08.697Z,14.60
2022-09-11T20:46:35.621Z,24.88
2022-09-11T20:49:03.136Z,16.10
2022-09-11T20:51:29.947Z,18.50
2022-09-11T20:53:57.089Z,18.88
2022-09-11T20:56:24.154Z,19.92
2022-09-11T21:01:21.969Z,22.38
2022-09-11T21:06:10.425Z,23.08
2022-09-11T21:08:37.279Z,18.25
2022-09-11T21:11:04.623Z,21.98
2022-09-11T21:13:35.290Z,15.88
2022-09-11T21:16:05.306Z,17.50
2022-09-11T21:18:31.994Z,17.20
2022-09-11T21:20:58.637Z,16.25
2022-09-11T21:23:25.248Z,18.52
2022-09-11T21:25:52.776Z,14.90
2022-09-11T21:28:20.210Z,17.73
2022-09-11T21:30:46.772Z,16.27
2022-09-11T21:33:13.445Z,20.10
2022-09-11T21:35:40.009Z,17.38
2022-09-11T21:38:06.674Z,17.00
2022-09-11T21:40:33.656Z,17.73
2022-09-11T21:43:00.424Z,17.05
2022-09-11T21:45:27.017Z,13.18
2022-09-11T21:47:53.632Z,17.92
2022-09-11T21:50:20.660Z,19.50
2022-09-11T21:52:47.316Z,21.33
2022-09-11T21:55:13.963Z,19.98
2022-09-11T21:57:40.572Z,20.52
2022-09-11T22:00:12.565Z,18.92
2022-09-11T22:05:06.135Z,17.40
2022-09-11T22:07:34.321Z,17.73
2022-09-11T22:10:02.018Z,17.50
2022-09-11T22:12:28.869Z,19.35
2022-09-11T22:14:55.507Z,18.35
2022-09-11T22:17:22.799Z,18.48
2022-09-11T22:19:49.419Z,17.60
2022-09-11T22:22:16.379Z,17.88
2022-09-11T22:24:42.995Z,16.40
2022-09-11T22:27:10.929Z,15.88
2022-09-11T22:29:37.570Z,16.08
2022-09-11T22:32:05.023Z,23.13
2022-09-11T22:34:36.115Z,14.68
2022-09-11T22:37:06.172Z,16.40
2022-09-11T22:39:32.844Z,24.73
2022-09-11T22:41:59.728Z,22.50
2022-09-11T22:44:27.104Z,18.10
2022-09-11T22:46:53.733Z,19.48
2022-09-11T22:49:20.563Z,18.33
2022-09-11T22:51:47.560Z,15.55
2022-09-11T22:54:14.692Z,22.60
2022-09-11T22:56:41.464Z,18.05
2022-09-11T22:59:08.810Z,19.00
2022-09-11T23:01:36.495Z,20.08
2022-09-11T23:04:03.453Z,22.13
2022-09-11T23:06:48.428Z,20.88
2022-09-11T23:09:16.945Z,24.48
2022-09-11T23:11:47.948Z,22.92
2022-09-11T23:14:15.011Z,27.65
2022-09-11T23:16:41.912Z,27.50
2022-09-11T23:19:08.633Z,24.52
2022-09-11T23:21:36.007Z,28.25
2022-09-11T23:24:06.150Z,27.70
2022-09-11T23:26:33.255Z,34.20
2022-09-11T23:29:00.080Z,30.67
2022-09-11T23:31:29.596Z,30.63
2022-09-11T23:33:59.144Z,28.05
2022-09-11T23:36:26.942Z,28.42
2022-09-11T23:38:53.849Z,26.80
2022-09-11T23:41:21.351Z,24.55
2022-09-11T23:43:48.468Z,26.63
2022-09-11T23:46:16.516Z,25.92
2022-09-11T23:48:43.705Z,26.42
2022-09-11T23:51:11.218Z,26.17
2022-09-11T23:53:39.285Z,27.35
2022-09-11T23:56:07.727Z,33.83
2022-09-11T23:58:39.216Z,30.45
